createdAt,value
2022-09-14T00:01:36.190Z,54.94
2022-09-14T00:04:06.821Z,55.07
2022-09-14T00:06:35.467Z,54.88
2022-09-14T00:09:06.794Z,55.17
2022-09-14T00:11:37.378Z,55.22
2022-09-14T00:14:06.490Z,55.60
2022-09-14T00:16:37.013Z,55.85
2022-09-14T00:19:07.529Z,55.99
2022-09-14T00:21:36.999Z,56.28
2022-09-14T00:24:05.350Z,56.09
2022-09-14T00:26:33.580Z,56.05
2022-09-14T00:29:04.867Z,56.02
2022-09-14T00:31:38.133Z,55.97
2022-09-14T00:34:08.310Z,56.28
2022-09-14T00:36:40.387Z,55.94
2022-09-14T00:39:09.043Z,55.92
2022-09-14T00:41:38.679Z,55.71
2022-09-14T00:44:29.347Z,55.86
2022-09-14T00:47:01.572Z,56.15
2022-09-14T00:49:32.945Z,56.03
2022-09-14T00:52:08.778Z,55.96
2022-09-14T00:54:37.739Z,56.01
2022-09-14T00:57:06.311Z,55.65
2022-09-14T00:59:38.184Z,55.80
2022-09-14T01:02:09.308Z,56.52
2022-09-14T01:04:37.375Z,55.81
2022-09-14T01:07:13.968Z,56.12
2022-09-14T01:09:52.111Z,55.96
2022-09-14T01:12:27.559Z,56.01
2022-09-14T01:15:03.847Z,56.44
2022-09-14T01:17:37.528Z,56.21
2022-09-14T01:20:20.509Z,56.02
2022-09-14T01:22:52.794Z,56.47
2022-09-14T01:25:42.827Z,55.82
2022-09-14T01:28:19.671Z,56.80
2022-09-14T01:30:49.754Z,55.80
2022-09-14T01:33:23.167Z,55.49
2022-09-14T01:35:55.219Z,55.96
2022-09-14T01:38:30.481Z,55.71
2022-09-14T01:41:01.747Z,55.56
2022-09-14T01:43:36.948Z,55.57
2022-09-14T01:46:08.435Z,55.68
2022-09-14T01:48:39.793Z,55.24
2022-09-14T01:51:15.331Z,55.30
2022-09-14T01:53:48.991Z,55.91
2022-09-14T01:56:22.820Z,55.68
2022-09-14T01:58:58.136Z,55.65
2022-09-14T02:01:32.786Z,55.90
2022-09-14T02:04:05.707Z,55.89
2022-09-14T02:06:38.630Z,55.64
2022-09-14T02:09:09.628Z,55.65
2022-09-14T02:11:37.979Z,55.57
2022-09-14T02:16:37.045Z,55.47
2022-09-14T02:19:05.440Z,55.47
2022-09-14T02:21:34.284Z,55.51
2022-09-14T02:24:03.541Z,55.61
2022-09-14T02:26:31.681Z,55.58
2022-09-14T02:28:59.987Z,55.59
2022-09-14T02:31:36.467Z,55.60
2022-09-14T02:34:11.419Z,55.88
2022-09-14T02:36:48.502Z,55.85
2022-09-14T02:39:27.965Z,55.98
2022-09-14T02:42:02.708Z,56.24
2022-09-14T02:44:40.472Z,56.30
2022-09-14T02:47:18.293Z,56.34
2022-09-14T02:49:54.105Z,56.46
2022-09-14T02:52:32.017Z,56.31
2022-09-14T02:55:06.169Z,56.37
2022-09-14T02:57:34.166Z,56.28
2022-09-14T03:00:02.638Z,56.07
2022-09-14T03:02:31.778Z,56.08
2022-09-14T03:04:59.667Z,56.08
2022-09-14T03:07:27.818Z,56.20
2022-09-14T03:09:55.612Z,56.14
2022-09-14T03:12:23.464Z,56.30
2022-09-14T03:14:51.567Z,56.15
2022-09-14T03:17:19.346Z,56.27
2022-09-14T03:19:48.745Z,56.34
2022-09-14T03:22:16.854Z,56.32
2022-09-14T03:24:44.824Z,56.27
2022-09-14T03:27:13.119Z,56.23
2022-09-14T03:29:41.310Z,56.18
2022-09-14T03:32:10.904Z,55.99
2022-09-14T03:34:38.893Z,56.19
2022-09-14T03:37:08.456Z,56.45
2022-09-14T03:39:36.360Z,56.42
2022-09-14T03:42:04.231Z,56.34
2022-09-14T03:44:32.412Z,56.39
2022-09-14T03:47:00.344Z,56.45
2022-09-14T03:49:28.335Z,56.46
2022-09-14T03:51:59.650Z,56.42
2022-09-14T03:54:29.453Z,56.61
2022-09-14T03:56:57.607Z,56.68
2022-09-14T03:59:25.813Z,56.72
2022-09-14T04:01:53.668Z,56.92
2022-09-14T04:04:22.076Z,57.19
2022-09-14T04:06:49.887Z,57.03
2022-09-14T04:09:19.221Z,57.01
2022-09-14T04:11:48.899Z,57.05
2022-09-14T04:14:17.694Z,57.21
2022-09-14T04:16:45.634Z,56.82
2022-09-14T04:19:13.983Z,57.06
2022-09-14T04:21:41.870Z,57.14
2022-09-14T04:24:15.579Z,57.29
2022-09-14T04:26:44.603Z,57.31
2022-09-14T04:29:14.736Z,57.14
2022-09-14T04:31:42.832Z,57.14
2022-09-14T04:34:12.739Z,56.98
2022-09-14T04:36:40.627Z,57.12
2022-09-14T04:39:09.141Z,57.22
2022-09-14T04:41:37.264Z,57.18
2022-09-14T04:44:05.106Z,57.50
2022-09-14T04:46:36.121Z,57.76
2022-09-14T04:49:04.550Z,57.64
2022-09-14T04:51:33.927Z,57.60
2022-09-14T04:54:03.044Z,57.55
2022-09-14T04:56:33.626Z,57.86
2022-09-14T04:59:04.206Z,57.63
2022-09-14T05:01:36.974Z,57.75
2022-09-14T05:04:05.968Z,58.35
2022-09-14T05:06:35.994Z,57.96
2022-09-14T05:09:06.607Z,57.88
2022-09-14T05:11:37.508Z,57.51
2022-09-14T05:14:05.902Z,57.77
2022-09-14T05:16:36.979Z,57.67
2022-09-14T05:19:07.295Z,57.62
2022-09-14T05:21:37.394Z,57.67
2022-09-14T05:24:08.827Z,57.57
2022-09-14T05:26:36.877Z,57.73
2022-09-14T05:29:04.737Z,57.53
2022-09-14T05:31:34.853Z,57.71
2022-09-14T05:34:03.128Z,57.47
2022-09-14T05:36:31.753Z,57.70
2022-09-14T05:39:00.971Z,57.91
2022-09-14T05:41:28.899Z,58.04
2022-09-14T05:43:56.839Z,57.88
2022-09-14T05:46:24.980Z,58.05
2022-09-14T05:48:54.352Z,57.87
2022-09-14T05:51:24.239Z,57.73
2022-09-14T05:53:53.770Z,57.95
2022-09-14T05:56:23.318Z,58.28
2022-09-14T05:58:51.808Z,58.07
2022-09-14T06:01:22.375Z,58.54
2022-09-14T06:03:51.794Z,58.35
2022-09-14T06:06:21.485Z,58.20
2022-09-14T06:08:52.486Z,58.02
2022-09-14T06:11:22.836Z,58.20
2022-09-14T06:13:51.644Z,58.08
2022-09-14T06:16:21.175Z,58.25
2022-09-14T06:18:50.094Z,58.18
2022-09-14T06:21:20.441Z,58.09
2022-09-14T06:23:50.883Z,58.06
2022-09-14T06:26:19.152Z,58.09
2022-09-14T06:28:47.053Z,57.72
2022-09-14T06:31:17.741Z,57.64
2022-09-14T06:33:46.760Z,57.59
2022-09-14T06:36:16.232Z,57.41
2022-09-14T06:38:44.476Z,57.20
2022-09-14T06:41:17.985Z,56.95
2022-09-14T06:43:46.147Z,56.81
2022-09-14T06:46:16.070Z,56.60
2022-09-14T06:48:46.117Z,56.41
2022-09-14T06:51:16.547Z,56.36
2022-09-14T06:53:45.050Z,56.34
2022-09-14T06:56:15.167Z,56.21
2022-09-14T06:58:43.538Z,56.18
2022-09-14T07:01:13.028Z,55.90
2022-09-14T07:03:40.903Z,55.64
2022-09-14T07:06:10.620Z,55.59
2022-09-14T07:08:39.813Z,55.49
2022-09-14T07:11:10.065Z,55.28
2022-09-14T07:13:39.732Z,55.09
2022-09-14T07:16:09.136Z,55.08
2022-09-14T07:18:37.587Z,54.94
2022-09-14T07:21:07.152Z,54.70
2022-09-14T07:23:37.897Z,54.60
2022-09-14T07:26:08.551Z,54.56
2022-09-14T07:28:37.791Z,54.56
2022-09-14T07:31:17.157Z,54.49
2022-09-14T07:33:45.247Z,54.39
2022-09-14T07:36:14.787Z,54.34
2022-09-14T07:38:52.691Z,54.28
2022-09-14T07:41:22.273Z,54.31
2022-09-14T07:43:51.085Z,54.33
2022-09-14T07:46:21.172Z,54.51
2022-09-14T07:48:50.143Z,54.08
2022-09-14T07:51:18.061Z,53.94
2022-09-14T07:53:45.936Z,53.88
2022-09-14T07:56:16.755Z,53.65
2022-09-14T07:58:45.346Z,53.28
2022-09-14T08:01:15.340Z,53.27
2022-09-14T08:03:45.886Z,53.20
2022-09-14T08:06:15.967Z,52.37
2022-09-14T08:08:47.990Z,52.71
2022-09-14T08:11:18.130Z,52.73
2022-09-14T08:13:49.955Z,52.73
2022-09-14T08:16:19.265Z,52.37
2022-09-14T08:18:49.244Z,52.40
2022-09-14T08:21:18.652Z,52.49
2022-09-14T08:23:46.509Z,52.52
2022-09-14T08:26:16.065Z,52.42
2022-09-14T08:28:44.527Z,52.33
2022-09-14T08:31:13.886Z,52.61
2022-09-14T08:33:43.541Z,52.26
2022-09-14T08:36:14.424Z,52.27
2022-09-14T08:38:42.417Z,52.00
2022-09-14T08:41:20.527Z,51.57
2022-09-14T08:43:48.748Z,51.84
2022-09-14T08:46:30.884Z,51.97
2022-09-14T08:49:02.298Z,51.24
2022-09-14T08:51:31.431Z,51.92
2022-09-14T08:54:00.404Z,52.05
2022-09-14T08:56:33.875Z,51.76
2022-09-14T08:59:16.971Z,51.67
2022-09-14T09:01:53.314Z,51.15
2022-09-14T09:04:31.257Z,51.66
2022-09-14T09:07:09.147Z,51.07
2022-09-14T09:09:45.457Z,49.71
2022-09-14T09:12:15.857Z,50.32
2022-09-14T09:14:48.005Z,51.41
2022-09-14T09:17:21.330Z,51.02
2022-09-14T09:19:59.079Z,50.79
2022-09-14T09:22:32.127Z,49.43
2022-09-14T09:25:03.923Z,50.11
2022-09-14T09:27:31.727Z,50.52
2022-09-14T09:29:59.499Z,50.56
2022-09-14T09:32:28.367Z,50.37
2022-09-14T09:34:57.167Z,50.39
2022-09-14T09:37:25.619Z,50.52
2022-09-14T09:39:55.140Z,50.73
2022-09-14T09:42:25.341Z,50.81
2022-09-14T09:45:01.317Z,50.68
2022-09-14T09:47:35.471Z,50.35
2022-09-14T09:50:06.646Z,50.73
2022-09-14T09:52:34.768Z,50.52
2022-09-14T09:55:18.445Z,50.60
2022-09-14T09:57:47.330Z,49.84
2022-09-14T10:00:22.376Z,50.71
2022-09-14T10:02:51.748Z,50.67
2022-09-14T10:05:23.250Z,50.85
2022-09-14T10:07:55.540Z,50.80
2022-09-14T10:10:40.437Z,50.97
2022-09-14T10:13:22.998Z,50.73
2022-09-14T10:15:50.950Z,50.73
2022-09-14T10:18:20.383Z,51.23
2022-09-14T10:21:07.672Z,51.05
2022-09-14T10:23:37.381Z,50.54
2022-09-14T10:26:36.534Z,51.21
2022-09-14T10:29:26.110Z,50.95
2022-09-14T10:31:58.105Z,50.75
2022-09-14T10:34:26.281Z,51.35
2022-09-14T10:37:02.822Z,51.51
2022-09-14T10:39:40.339Z,51.28
2022-09-14T10:42:18.487Z,51.98
2022-09-14T10:44:58.314Z,51.48
2022-09-14T10:47:45.547Z,51.63
2022-09-14T10:50:29.061Z,51.73
2022-09-14T10:53:06.706Z,51.63
2022-09-14T10:55:43.863Z,51.96
2022-09-14T11:00:14.721Z,51.06
2022-09-14T11:03:14.821Z,51.06
2022-09-14T11:05:51.567Z,51.95
2022-09-14T11:08:30.801Z,51.98
2022-09-14T11:11:27.407Z,52.46
2022-09-14T11:14:07.083Z,52.27
2022-09-14T11:16:54.034Z,52.42
2022-09-14T11:19:33.334Z,53.25
2022-09-14T11:22:07.524Z,52.84
2022-09-14T11:24:42.023Z,52.69
2022-09-14T11:27:16.902Z,52.86
2022-09-14T11:29:51.511Z,53.10
2022-09-14T11:32:24.472Z,53.23
2022-09-14T11:34:57.952Z,53.20
2022-09-14T11:37:33.591Z,53.23
2022-09-14T11:40:10.234Z,53.63
2022-09-14T11:42:45.461Z,53.88
2022-09-14T11:45:20.344Z,53.88
2022-09-14T11:48:00.855Z,53.64
2022-09-14T11:50:32.183Z,54.31
2022-09-14T11:53:12.742Z,54.07
2022-09-14T11:55:46.363Z,54.89
2022-09-14T11:58:19.460Z,54.48
2022-09-14T12:01:07.092Z,54.61
2022-09-14T12:04:12.708Z,55.25
2022-09-14T12:06:55.393Z,55.85
2022-09-14T12:09:54.360Z,55.18
2022-09-14T12:12:31.772Z,55.31
2022-09-14T12:15:02.663Z,55.01
2022-09-14T12:17:41.437Z,54.68
2022-09-14T12:20:43.976Z,54.91
2022-09-14T12:23:21.952Z,55.48
2022-09-14T12:26:25.519Z,54.84
2022-09-14T12:28:56.635Z,55.44
2022-09-14T12:31:36.625Z,55.07
2022-09-14T12:34:16.515Z,55.49
2022-09-14T12:37:30.458Z,55.25
2022-09-14T12:40:33.637Z,55.54
2022-09-14T12:43:48.597Z,54.33
2022-09-14T12:46:38.754Z,55.34
2022-09-14T12:49:30.188Z,55.65
2022-09-14T12:52:03.896Z,55.84
2022-09-14T12:54:42.870Z,54.86
2022-09-14T12:57:25.012Z,54.83
2022-09-14T12:59:58.904Z,54.93
2022-09-14T13:03:00.854Z,54.85
2022-09-14T13:05:31.614Z,54.55
2022-09-14T13:07:59.993Z,54.72
2022-09-14T13:10:32.951Z,54.79
2022-09-14T13:13:05.672Z,55.08
2022-09-14T13:15:37.605Z,55.27
2022-09-14T13:18:07.940Z,55.35
2022-09-14T13:20:36.879Z,55.17
2022-09-14T13:23:20.704Z,55.12
2022-09-14T13:25:49.997Z,55.91
2022-09-14T13:28:21.784Z,55.22
2022-09-14T13:30:55.739Z,55.50
2022-09-14T13:33:24.225Z,55.71
2022-09-14T13:35:54.827Z,55.55
2022-09-14T13:38:25.096Z,55.49
2022-09-14T13:40:56.140Z,54.91
2022-09-14T13:43:25.367Z,55.05
2022-09-14T13:45:53.709Z,54.97
2022-09-14T13:48:22.377Z,55.29
2022-09-14T13:50:52.476Z,55.55
2022-09-14T13:53:45.627Z,55.65
2022-09-14T13:56:22.831Z,56.58
2022-09-14T13:59:21.577Z,55.72
2022-09-14T14:01:56.616Z,55.67
2022-09-14T14:04:29.272Z,55.99
2022-09-14T14:07:03.889Z,55.58
2022-09-14T14:09:43.801Z,56.14
2022-09-14T14:12:21.636Z,56.38
2022-09-14T14:14:55.751Z,55.88
2022-09-14T14:17:34.304Z,56.79
2022-09-14T14:20:33.668Z,57.00
2022-09-14T14:23:15.699Z,56.52
2022-09-14T14:25:47.741Z,55.65
2022-09-14T14:28:19.087Z,56.12
2022-09-14T14:30:48.684Z,56.13
2022-09-14T14:33:19.449Z,55.91
2022-09-14T14:35:48.489Z,56.37
2022-09-14T14:38:17.042Z,56.43
2022-09-14T14:40:46.094Z,55.93
2022-09-14T14:43:19.540Z,56.55
2022-09-14T14:45:49.463Z,56.92
2022-09-14T14:48:18.331Z,56.81
2022-09-14T14:50:47.351Z,56.76
2022-09-14T14:53:15.531Z,56.59
2022-09-14T14:55:43.914Z,56.30
2022-09-14T14:58:16.666Z,56.29
2022-09-14T15:00:45.224Z,56.42
2022-09-14T15:03:15.475Z,56.51
2022-09-14T15:05:44.339Z,56.49
2022-09-14T15:08:13.993Z,56.34
2022-09-14T15:10:42.202Z,56.40
2022-09-14T15:13:11.806Z,56.34
2022-09-14T15:15:42.103Z,56.43
2022-09-14T15:18:10.354Z,56.35
2022-09-14T15:20:39.695Z,56.60
2022-09-14T15:23:09.924Z,56.88
2022-09-14T15:25:37.940Z,56.97
2022-09-14T15:28:06.008Z,57.11
2022-09-14T15:30:34.450Z,56.96
2022-09-14T15:33:02.335Z,56.70
2022-09-14T15:35:30.457Z,56.92
2022-09-14T15:37:59.974Z,57.13
2022-09-14T15:40:27.908Z,57.07
2022-09-14T15:42:55.827Z,57.35
2022-09-14T15:45:24.157Z,57.55
2022-09-14T15:47:52.094Z,57.72
2022-09-14T15:50:19.968Z,57.65
2022-09-14T15:52:48.120Z,57.60
2022-09-14T15:55:17.505Z,57.66
2022-09-14T15:57:45.583Z,57.77
2022-09-14T16:00:15.423Z,57.61
2022-09-14T16:02:44.262Z,57.75
2022-09-14T16:05:12.939Z,57.55
2022-09-14T16:07:40.830Z,57.75
2022-09-14T16:10:09.977Z,57.83
2022-09-14T16:12:39.190Z,57.78
2022-09-14T16:15:08.432Z,57.96
2022-09-14T16:17:36.511Z,57.46
2022-09-14T16:20:04.843Z,57.76
2022-09-14T16:22:32.907Z,57.90
2022-09-14T16:25:01.013Z,58.10
2022-09-14T16:27:29.569Z,58.05
2022-09-14T16:29:58.769Z,58.16
2022-09-14T16:32:27.527Z,58.37
2022-09-14T16:34:55.813Z,58.47
2022-09-14T16:37:23.681Z,58.87
2022-09-14T16:39:51.886Z,58.63
2022-09-14T16:42:20.329Z,58.85
2022-09-14T16:44:48.255Z,59.00
2022-09-14T16:47:17.698Z,58.92
2022-09-14T16:49:45.575Z,58.90
2022-09-14T16:52:13.509Z,58.81
2022-09-14T16:54:41.681Z,58.79
2022-09-14T16:57:09.795Z,58.99
2022-09-14T16:59:37.607Z,59.04
2022-09-14T17:02:05.934Z,59.08
2022-09-14T17:04:35.241Z,59.04
2022-09-14T17:07:03.115Z,58.72
2022-09-14T17:09:32.921Z,58.74
2022-09-14T17:12:01.436Z,58.86
2022-09-14T17:14:31.222Z,58.93
2022-09-14T17:17:00.604Z,58.95
2022-09-14T17:19:29.318Z,59.00
2022-09-14T17:21:58.585Z,58.96
2022-09-14T17:24:26.863Z,58.83
2022-09-14T17:26:54.777Z,58.78
2022-09-14T17:29:22.878Z,58.80
2022-09-14T17:31:51.551Z,59.16
2022-09-14T17:34:19.490Z,59.40
2022-09-14T17:36:47.520Z,59.54
2022-09-14T17:39:17.095Z,59.52
2022-09-14T17:41:45.092Z,59.55
2022-09-14T17:44:14.375Z,59.76
2022-09-14T17:46:52.833Z,59.88
2022-09-14T17:49:22.157Z,59.90
2022-09-14T17:51:50.760Z,59.94
2022-09-14T17:54:20.936Z,59.86
2022-09-14T17:56:49.097Z,59.74
2022-09-14T17:59:20.198Z,59.91
2022-09-14T18:01:48.728Z,60.31
2022-09-14T18:04:17.788Z,59.89
2022-09-14T18:06:47.312Z,59.93
2022-09-14T18:09:16.929Z,59.87
2022-09-14T18:11:47.242Z,60.21
2022-09-14T18:14:16.186Z,60.22
2022-09-14T18:16:45.197Z,60.51
2022-09-14T18:19:14.080Z,60.20
2022-09-14T18:21:42.647Z,60.67
2022-09-14T18:24:12.337Z,60.44
2022-09-14T18:26:40.487Z,60.55
2022-09-14T18:29:14.318Z,60.50
2022-09-14T18:31:43.316Z,60.83
2022-09-14T18:34:11.561Z,60.58
2022-09-14T18:36:39.910Z,60.74
2022-09-14T18:39:08.128Z,60.71
2022-09-14T18:41:36.198Z,60.59
2022-09-14T18:44:04.634Z,61.07
2022-09-14T18:46:34.342Z,61.02
2022-09-14T18:49:03.397Z,61.49
2022-09-14T18:51:33.092Z,61.18
2022-09-14T18:54:11.294Z,61.04
2022-09-14T18:56:41.313Z,61.96
2022-09-14T18:59:13.047Z,61.42
2022-09-14T19:01:43.627Z,61.45
2022-09-14T19:04:16.182Z,61.09
2022-09-14T19:07:12.323Z,61.37
2022-09-14T19:09:40.590Z,61.28
2022-09-14T19:12:10.464Z,61.06
2022-09-14T19:14:38.828Z,60.80
2022-09-14T19:17:08.722Z,60.94
2022-09-14T19:19:36.903Z,61.01
2022-09-14T19:22:04.876Z,60.74
2022-09-14T19:24:33.337Z,61.04
2022-09-14T19:27:01.621Z,60.77
2022-09-14T19:29:34.687Z,61.04
2022-09-14T19:32:03.238Z,61.21
2022-09-14T19:34:32.501Z,61.27
2022-09-14T19:37:00.698Z,61.58
2022-09-14T19:39:28.784Z,61.62
2022-09-14T19:41:56.744Z,61.68
2022-09-14T19:44:24.933Z,61.41
2022-09-14T19:46:53.339Z,61.50
2022-09-14T19:49:23.022Z,61.58
2022-09-14T19:51:53.012Z,61.63
2022-09-14T19:54:21.159Z,62.11
2022-09-14T19:56:49.575Z,62.48
2022-09-14T19:59:17.793Z,62.35
2022-09-14T20:01:46.218Z,62.38
2022-09-14T20:04:15.644Z,62.75
2022-09-14T20:06:45.600Z,62.17
2022-09-14T20:09:20.256Z,62.68
2022-09-14T20:11:55.123Z,62.68
2022-09-14T20:14:24.880Z,62.56
2022-09-14T20:16:55.732Z,62.51
2022-09-14T20:19:25.806Z,62.60
2022-09-14T20:21:54.558Z,62.25
2022-09-14T20:24:26.694Z,62.31
2022-09-14T20:26:56.942Z,62.34
2022-09-14T20:29:26.191Z,62.41
2022-09-14T20:31:54.410Z,62.24
2022-09-14T20:34:22.648Z,62.28
2022-09-14T20:36:52.975Z,61.96
2022-09-14T20:39:22.693Z,62.01
2022-09-14T20:41:53.366Z,61.98
2022-09-14T20:44:23.182Z,62.14
2022-09-14T20:46:52.276Z,62.38
2022-09-14T20:49:22.048Z,62.48
2022-09-14T20:51:52.547Z,62.03
2022-09-14T20:54:21.387Z,62.54
2022-09-14T20:56:49.824Z,62.44
2022-09-14T20:59:22.209Z,62.56
2022-09-14T21:01:52.562Z,62.58
2022-09-14T21:04:23.268Z,62.33
2022-09-14T21:06:53.091Z,62.22
2022-09-14T21:09:24.588Z,62.20
2022-09-14T21:11:53.509Z,62.42
2022-09-14T21:14:23.398Z,62.45
2022-09-14T21:16:55.288Z,62.54
2022-09-14T21:19:25.728Z,63.14
2022-09-14T21:21:54.405Z,62.79
2022-09-14T21:24:23.723Z,62.96
2022-09-14T21:26:52.157Z,63.39
2022-09-14T21:29:24.469Z,62.94
2022-09-14T21:31:53.600Z,62.52
2022-09-14T21:34:21.679Z,62.66
2022-09-14T21:36:52.054Z,62.90
2022-09-14T21:39:22.945Z,63.15
2022-09-14T21:41:55.971Z,63.35
2022-09-14T21:44:33.224Z,63.04
2022-09-14T21:47:01.762Z,63.88
2022-09-14T21:49:30.798Z,63.03
2022-09-14T21:51:58.707Z,63.38
2022-09-14T21:54:27.258Z,63.01
2022-09-14T21:56:55.786Z,63.44
2022-09-14T21:59:24.113Z,63.69
2022-09-14T22:01:53.700Z,63.72
2022-09-14T22:04:25.098Z,63.68
2022-09-14T22:06:54.383Z,63.59
2022-09-14T22:09:25.195Z,63.77
2022-09-14T22:11:53.824Z,63.61
2022-09-14T22:14:23.845Z,63.70
2022-09-14T22:16:53.976Z,63.78
2022-09-14T22:19:24.289Z,64.30
2022-09-14T22:21:53.098Z,63.70
2022-09-14T22:24:24.055Z,63.73
2022-09-14T22:26:54.198Z,64.35
2022-09-14T22:29:22.191Z,63.72
2022-09-14T22:31:50.371Z,63.91
2022-09-14T22:34:21.151Z,63.55
2022-09-14T22:36:49.051Z,63.74
2022-09-14T22:39:17.086Z,63.10
2022-09-14T22:41:45.176Z,62.97
2022-09-14T22:44:13.388Z,62.87
2022-09-14T22:46:41.527Z,62.87
2022-09-14T22:49:10.343Z,62.76
2022-09-14T22:51:39.603Z,62.82
2022-09-14T22:54:08.289Z,63.24
2022-09-14T22:56:39.203Z,62.87
2022-09-14T22:59:09.360Z,62.85
2022-09-14T23:01:40.143Z,63.13
2022-09-14T23:04:10.351Z,62.72
2022-09-14T23:06:41.803Z,62.62
2022-09-14T23:09:12.436Z,62.71
2022-09-14T23:11:42.162Z,62.90
2022-09-14T23:14:10.133Z,63.01
2022-09-14T23:16:38.621Z,63.09
2022-09-14T23:19:07.616Z,63.35
2022-09-14T23:21:36.274Z,63.02
2022-09-14T23:24:07.891Z,63.29
2022-09-14T23:26:36.072Z,63.40
2022-09-14T23:29:07.051Z,63.03
2022-09-14T23:31:35.903Z,63.28
2022-09-14T23:34:05.314Z,63.22
2022-09-14T23:36:33.738Z,63.34
2022-09-14T23:39:02.165Z,63.33
2022-09-14T23:41:31.741Z,63.72
2022-09-14T23:43:59.612Z,63.75
2022-09-14T23:46:27.770Z,63.47
2022-09-14T23:48:55.686Z,63.36
2022-09-14T23:51:24.039Z,63.60
2022-09-14T23:53:52.231Z,63.14
2022-09-14T23:56:20.194Z,63.30
2022-09-14T23:58:49.604Z,63.45
